sensor_id;sensor_type;location;lat;lon;timestamp;P1;durP1;ratioP1;P2;durP2;ratioP2
66425;SDS011;53237;46.158;14.604;2023-07-13T00:01:16;4.18;;;3.28;;
66425;SDS011;53237;46.158;14.604;2023-07-13T00:03:42;3.17;;;2.88;;
66425;SDS011;53237;46.158;14.604;2023-07-13T00:06:08;4.55;;;3.55;;
66425;SDS011;53237;46.158;14.604;2023-07-13T00:08:35;7.97;;;3.95;;
66425;SDS011;53237;46.158;14.604;2023-07-13T00:11:02;5.57;;;3.70;;
66425;SDS011;53237;46.158;14.604;2023-07-13T00:13:28;5.80;;;3.25;;
66425;SDS011;53237;46.158;14.604;2023-07-13T00:15:55;3.10;;;2.80;;
66425;SDS011;53237;46.158;14.604;2023-07-13T00:18:21;3.72;;;3.15;;
66425;SDS011;53237;46.158;14.604;2023-07-13T00:20:47;4.07;;;2.60;;
66425;SDS011;53237;46.158;14.604;2023-07-13T00:23:13;2.83;;;2.60;;
66425;SDS011;53237;46.158;14.604;2023-07-13T00:25:39;3.42;;;2.70;;
66425;SDS011;53237;46.158;14.604;2023-07-13T00:28:05;3.20;;;2.90;;
66425;SDS011;53237;46.158;14.604;2023-07-13T00:30:31;3.15;;;2.88;;
66425;SDS011;53237;46.158;14.604;2023-07-13T00:32:57;3.70;;;2.67;;
66425;SDS011;53237;46.158;14.604;2023-07-13T00:35:25;3.58;;;3.15;;
66425;SDS011;53237;46.158;14.604;2023-07-13T00:37:51;4.10;;;2.78;;
66425;SDS011;53237;46.158;14.604;2023-07-13T00:40:17;3.90;;;2.97;;
66425;SDS011;53237;46.158;14.604;2023-07-13T00:42:43;3.80;;;2.75;;
66425;SDS011;53237;46.158;14.604;2023-07-13T00:47:41;3.30;;;3.00;;
66425;SDS011;53237;46.158;14.604;2023-07-13T00:50:12;3.47;;;2.90;;
66425;SDS011;53237;46.158;14.604;2023-07-13T00:52:40;4.03;;;3.10;;
66425;SDS011;53237;46.158;14.604;2023-07-13T00:55:07;4.63;;;3.08;;
66425;SDS011;53237;46.158;14.604;2023-07-13T00:57:34;3.92;;;2.60;;
66425;SDS011;53237;46.158;14.604;2023-07-13T01:00:01;5.15;;;3.15;;
66425;SDS011;53237;46.158;14.604;2023-07-13T01:02:30;3.60;;;3.22;;
66425;SDS011;53237;46.158;14.604;2023-07-13T01:04:56;6.90;;;3.55;;
66425;SDS011;53237;46.158;14.604;2023-07-13T01:07:22;9.27;;;4.18;;
66425;SDS011;53237;46.158;14.604;2023-07-13T01:09:48;12.45;;;5.78;;
66425;SDS011;53237;46.158;14.604;2023-07-13T01:12:14;7.35;;;3.08;;
66425;SDS011;53237;46.158;14.604;2023-07-13T01:14:40;11.25;;;2.63;;
66425;SDS011;53237;46.158;14.604;2023-07-13T01:17:08;8.07;;;2.15;;
66425;SDS011;53237;46.158;14.604;2023-07-13T01:19:42;6.78;;;1.95;;
66425;SDS011;53237;46.158;14.604;2023-07-13T01:22:13;12.35;;;3.78;;
66425;SDS011;53237;46.158;14.604;2023-07-13T01:24:41;6.13;;;2.65;;
66425;SDS011;53237;46.158;14.604;2023-07-13T01:27:08;4.25;;;1.67;;
66425;SDS011;53237;46.158;14.604;2023-07-13T01:29:35;4.93;;;1.90;;
66425;SDS011;53237;46.158;14.604;2023-07-13T01:32:06;3.63;;;1.70;;
66425;SDS011;53237;46.158;14.604;2023-07-13T01:34:33;4.68;;;1.60;;
66425;SDS011;53237;46.158;14.604;2023-07-13T01:36:59;4.40;;;1.30;;
66425;SDS011;53237;46.158;14.604;2023-07-13T01:39:25;5.35;;;1.75;;
66425;SDS011;53237;46.158;14.604;2023-07-13T01:41:51;4.18;;;1.92;;
66425;SDS011;53237;46.158;14.604;2023-07-13T01:44:17;3.78;;;1.60;;
66425;SDS011;53237;46.158;14.604;2023-07-13T01:46:43;3.20;;;1.70;;
66425;SDS011;53237;46.158;14.604;2023-07-13T01:49:09;3.13;;;1.52;;
66425;SDS011;53237;46.158;14.604;2023-07-13T01:51:34;2.40;;;1.40;;
66425;SDS011;53237;46.158;14.604;2023-07-13T01:54:00;3.28;;;1.35;;
66425;SDS011;53237;46.158;14.604;2023-07-13T01:56:26;3.50;;;2.03;;
66425;SDS011;53237;46.158;14.604;2023-07-13T01:58:52;3.75;;;1.52;;
66425;SDS011;53237;46.158;14.604;2023-07-13T02:01:18;3.65;;;1.50;;
66425;SDS011;53237;46.158;14.604;2023-07-13T02:03:44;1.90;;;1.40;;
66425;SDS011;53237;46.158;14.604;2023-07-13T02:06:11;3.97;;;1.40;;
66425;SDS011;53237;46.158;14.604;2023-07-13T02:08:37;2.40;;;1.20;;
66425;SDS011;53237;46.158;14.604;2023-07-13T02:11:03;4.15;;;1.50;;
66425;SDS011;53237;46.158;14.604;2023-07-13T02:13:29;4.60;;;1.90;;
66425;SDS011;53237;46.158;14.604;2023-07-13T02:15:55;4.68;;;1.50;;
66425;SDS011;53237;46.158;14.604;2023-07-13T02:18:21;1.85;;;1.23;;
66425;SDS011;53237;46.158;14.604;2023-07-13T02:20:47;2.80;;;1.52;;
66425;SDS011;53237;46.158;14.604;2023-07-13T02:23:13;2.03;;;1.10;;
66425;SDS011;53237;46.158;14.604;2023-07-13T02:25:39;2.97;;;1.55;;
66425;SDS011;53237;46.158;14.604;2023-07-13T02:28:06;2.33;;;1.25;;
66425;SDS011;53237;46.158;14.604;2023-07-13T02:30:33;1.80;;;1.10;;
66425;SDS011;53237;46.158;14.604;2023-07-13T02:32:59;3.10;;;1.60;;
66425;SDS011;53237;46.158;14.604;2023-07-13T02:35:25;3.63;;;1.50;;
66425;SDS011;53237;46.158;14.604;2023-07-13T02:37:51;6.07;;;1.67;;
66425;SDS011;53237;46.158;14.604;2023-07-13T02:40:17;1.95;;;1.40;;
66425;SDS011;53237;46.158;14.604;2023-07-13T02:42:43;2.50;;;1.60;;
66425;SDS011;53237;46.158;14.604;2023-07-13T02:45:09;4.93;;;2.10;;
66425;SDS011;53237;46.158;14.604;2023-07-13T02:47:37;2.72;;;1.65;;
66425;SDS011;53237;46.158;14.604;2023-07-13T02:50:04;4.85;;;1.67;;
66425;SDS011;53237;46.158;14.604;2023-07-13T02:52:30;3.70;;;1.67;;
66425;SDS011;53237;46.158;14.604;2023-07-13T02:54:56;2.53;;;1.35;;
66425;SDS011;53237;46.158;14.604;2023-07-13T02:57:22;4.90;;;1.67;;
66425;SDS011;53237;46.158;14.604;2023-07-13T02:59:48;6.07;;;2.20;;
66425;SDS011;53237;46.158;14.604;2023-07-13T03:02:14;3.00;;;1.80;;
66425;SDS011;53237;46.158;14.604;2023-07-13T03:04:40;3.33;;;1.50;;
66425;SDS011;53237;46.158;14.604;2023-07-13T03:07:06;3.22;;;1.73;;
66425;SDS011;53237;46.158;14.604;2023-07-13T03:09:33;4.88;;;2.03;;
66425;SDS011;53237;46.158;14.604;2023-07-13T03:11:59;2.75;;;1.60;;
66425;SDS011;53237;46.158;14.604;2023-07-13T03:14:25;3.60;;;1.70;;
66425;SDS011;53237;46.158;14.604;2023-07-13T03:16:51;5.43;;;1.58;;
66425;SDS011;53237;46.158;14.604;2023-07-13T03:19:17;3.92;;;1.80;;
66425;SDS011;53237;46.158;14.604;2023-07-13T03:21:44;3.55;;;1.52;;
66425;SDS011;53237;46.158;14.604;2023-07-13T03:24:10;2.40;;;1.40;;
66425;SDS011;53237;46.158;14.604;2023-07-13T03:26:36;4.55;;;1.80;;
66425;SDS011;53237;46.158;14.604;2023-07-13T03:29:03;4.22;;;1.75;;
66425;SDS011;53237;46.158;14.604;2023-07-13T03:31:29;3.05;;;1.85;;
66425;SDS011;53237;46.158;14.604;2023-07-13T03:33:56;3.78;;;2.00;;
66425;SDS011;53237;46.158;14.604;2023-07-13T03:36:23;5.10;;;1.83;;
66425;SDS011;53237;46.158;14.604;2023-07-13T03:38:51;2.55;;;1.30;;
66425;SDS011;53237;46.158;14.604;2023-07-13T03:41:17;2.17;;;1.55;;
66425;SDS011;53237;46.158;14.604;2023-07-13T03:43:43;3.08;;;1.40;;
66425;SDS011;53237;46.158;14.604;2023-07-13T03:46:10;2.75;;;1.58;;
66425;SDS011;53237;46.158;14.604;2023-07-13T03:48:36;3.15;;;1.70;;
66425;SDS011;53237;46.158;14.604;2023-07-13T03:51:02;3.38;;;1.40;;
66425;SDS011;53237;46.158;14.604;2023-07-13T03:53:28;2.95;;;1.70;;
66425;SDS011;53237;46.158;14.604;2023-07-13T03:55:54;2.55;;;1.20;;
66425;SDS011;53237;46.158;14.604;2023-07-13T03:58:24;1.85;;;1.23;;
66425;SDS011;53237;46.158;14.604;2023-07-13T04:00:51;3.40;;;1.83;;
66425;SDS011;53237;46.158;14.604;2023-07-13T04:03:17;2.95;;;1.42;;
66425;SDS011;53237;46.158;14.604;2023-07-13T04:05:43;2.83;;;1.48;;
66425;SDS011;53237;46.158;14.604;2023-07-13T04:08:09;2.30;;;1.50;;
66425;SDS011;53237;46.158;14.604;2023-07-13T04:10:35;2.40;;;1.55;;
66425;SDS011;53237;46.158;14.604;2023-07-13T04:13:01;2.30;;;1.20;;
66425;SDS011;53237;46.158;14.604;2023-07-13T04:15:28;2.80;;;1.70;;
66425;SDS011;53237;46.158;14.604;2023-07-13T04:17:54;2.35;;;1.55;;
66425;SDS011;53237;46.158;14.604;2023-07-13T04:20:20;2.33;;;1.50;;
66425;SDS011;53237;46.158;14.604;2023-07-13T04:22:46;3.83;;;1.90;;
66425;SDS011;53237;46.158;14.604;2023-07-13T04:25:12;3.63;;;1.80;;
66425;SDS011;53237;46.158;14.604;2023-07-13T04:27:38;2.15;;;1.52;;
66425;SDS011;53237;46.158;14.604;2023-07-13T04:30:06;3.47;;;1.48;;
66425;SDS011;53237;46.158;14.604;2023-07-13T04:32:32;2.40;;;1.40;;
66425;SDS011;53237;46.158;14.604;2023-07-13T04:34:58;2.33;;;1.60;;
66425;SDS011;53237;46.158;14.604;2023-07-13T04:37:24;1.67;;;1.17;;
66425;SDS011;53237;46.158;14.604;2023-07-13T04:39:50;3.25;;;1.50;;
66425;SDS011;53237;46.158;14.604;2023-07-13T04:42:16;2.25;;;1.50;;
66425;SDS011;53237;46.158;14.604;2023-07-13T04:44:47;1.58;;;1.30;;
66425;SDS011;53237;46.158;14.604;2023-07-13T04:47:13;1.98;;;1.58;;
66425;SDS011;53237;46.158;14.604;2023-07-13T04:49:39;3.20;;;1.80;;
66425;SDS011;53237;46.158;14.604;2023-07-13T04:52:06;3.25;;;1.67;;
66425;SDS011;53237;46.158;14.604;2023-07-13T04:54:32;1.95;;;1.30;;
66425;SDS011;53237;46.158;14.604;2023-07-13T04:56:58;3.47;;;1.98;;
66425;SDS011;53237;46.158;14.604;2023-07-13T04:59:24;5.40;;;2.33;;
66425;SDS011;53237;46.158;14.604;2023-07-13T05:01:50;2.22;;;1.70;;
66425;SDS011;53237;46.158;14.604;2023-07-13T05:04:17;4.68;;;2.47;;
66425;SDS011;53237;46.158;14.604;2023-07-13T05:06:43;2.65;;;1.80;;
66425;SDS011;53237;46.158;14.604;2023-07-13T05:09:09;4.45;;;2.70;;
66425;SDS011;53237;46.158;14.604;2023-07-13T05:11:35;5.88;;;2.92;;
66425;SDS011;53237;46.158;14.604;2023-07-13T05:14:01;3.58;;;2.35;;
66425;SDS011;53237;46.158;14.604;2023-07-13T05:16:27;2.42;;;1.90;;
66425;SDS011;53237;46.158;14.604;2023-07-13T05:18:53;3.67;;;2.10;;
66425;SDS011;53237;46.158;14.604;2023-07-13T05:21:19;3.35;;;2.20;;
66425;SDS011;53237;46.158;14.604;2023-07-13T05:23:45;3.30;;;1.60;;
66425;SDS011;53237;46.158;14.604;2023-07-13T05:26:11;3.22;;;1.63;;
66425;SDS011;53237;46.158;14.604;2023-07-13T05:28:37;2.28;;;1.52;;
66425;SDS011;53237;46.158;14.604;2023-07-13T05:31:04;4.97;;;1.85;;
66425;SDS011;53237;46.158;14.604;2023-07-13T05:33:30;2.45;;;1.60;;
66425;SDS011;53237;46.158;14.604;2023-07-13T05:35:56;2.58;;;1.67;;
66425;SDS011;53237;46.158;14.604;2023-07-13T05:38:22;2.42;;;1.75;;
66425;SDS011;53237;46.158;14.604;2023-07-13T05:40:48;3.10;;;1.73;;
66425;SDS011;53237;46.158;14.604;2023-07-13T05:43:14;2.15;;;1.45;;
66425;SDS011;53237;46.158;14.604;2023-07-13T05:45:40;2.45;;;1.58;;
66425;SDS011;53237;46.158;14.604;2023-07-13T05:48:06;2.22;;;1.50;;
66425;SDS011;53237;46.158;14.604;2023-07-13T05:50:32;3.90;;;1.80;;
66425;SDS011;53237;46.158;14.604;2023-07-13T05:52:58;2.60;;;1.63;;
66425;SDS011;53237;46.158;14.604;2023-07-13T05:55:24;3.38;;;1.65;;
66425;SDS011;53237;46.158;14.604;2023-07-13T05:57:50;3.28;;;2.05;;
66425;SDS011;53237;46.158;14.604;2023-07-13T06:00:16;3.15;;;2.03;;
66425;SDS011;53237;46.158;14.604;2023-07-13T06:02:42;3.75;;;2.00;;
66425;SDS011;53237;46.158;14.604;2023-07-13T06:05:08;2.25;;;1.70;;
66425;SDS011;53237;46.158;14.604;2023-07-13T06:07:34;2.13;;;1.75;;
66425;SDS011;53237;46.158;14.604;2023-07-13T06:10:00;3.25;;;1.75;;
66425;SDS011;53237;46.158;14.604;2023-07-13T06:12:27;3.10;;;1.70;;
66425;SDS011;53237;46.158;14.604;2023-07-13T06:14:53;3.25;;;1.58;;
66425;SDS011;53237;46.158;14.604;2023-07-13T06:17:19;2.00;;;1.67;;
66425;SDS011;53237;46.158;14.604;2023-07-13T06:19:45;3.63;;;1.98;;
66425;SDS011;53237;46.158;14.604;2023-07-13T06:22:11;2.25;;;1.50;;
66425;SDS011;53237;46.158;14.604;2023-07-13T06:24:37;4.03;;;2.00;;
66425;SDS011;53237;46.158;14.604;2023-07-13T06:27:03;3.25;;;2.47;;
66425;SDS011;53237;46.158;14.604;2023-07-13T06:29:29;2.58;;;1.58;;
66425;SDS011;53237;46.158;14.604;2023-07-13T06:31:56;3.78;;;2.10;;
66425;SDS011;53237;46.158;14.604;2023-07-13T06:34:22;2.42;;;1.90;;
66425;SDS011;53237;46.158;14.604;2023-07-13T06:36:48;2.35;;;1.60;;
66425;SDS011;53237;46.158;14.604;2023-07-13T06:39:14;2.47;;;1.40;;
66425;SDS011;53237;46.158;14.604;2023-07-13T06:41:40;2.92;;;1.92;;
66425;SDS011;53237;46.158;14.604;2023-07-13T06:44:06;2.15;;;1.95;;
66425;SDS011;53237;46.158;14.604;2023-07-13T06:46:32;3.28;;;1.58;;
66425;SDS011;53237;46.158;14.604;2023-07-13T06:48:58;3.17;;;1.85;;
66425;SDS011;53237;46.158;14.604;2023-07-13T06:51:24;2.75;;;2.35;;
66425;SDS011;53237;46.158;14.604;2023-07-13T06:53:51;3.58;;;2.10;;
66425;SDS011;53237;46.158;14.604;2023-07-13T06:56:17;2.85;;;2.20;;
66425;SDS011;53237;46.158;14.604;2023-07-13T06:58:43;4.45;;;2.30;;
66425;SDS011;53237;46.158;14.604;2023-07-13T07:01:09;3.80;;;2.38;;
66425;SDS011;53237;46.158;14.604;2023-07-13T07:03:35;3.60;;;2.60;;
66425;SDS011;53237;46.158;14.604;2023-07-13T07:06:03;3.83;;;2.58;;
66425;SDS011;53237;46.158;14.604;2023-07-13T07:08:31;3.90;;;2.47;;
66425;SDS011;53237;46.158;14.604;2023-07-13T07:10:57;3.08;;;2.35;;
66425;SDS011;53237;46.158;14.604;2023-07-13T07:13:23;1.70;;;1.60;;
66425;SDS011;53237;46.158;14.604;2023-07-13T07:15:50;4.15;;;1.90;;
66425;SDS011;53237;46.158;14.604;2023-07-13T07:18:17;5.15;;;2.63;;
66425;SDS011;53237;46.158;14.604;2023-07-13T07:20:42;3.30;;;2.10;;
66425;SDS011;53237;46.158;14.604;2023-07-13T07:23:08;5.88;;;3.05;;
66425;SDS011;53237;46.158;14.604;2023-07-13T07:25:34;3.20;;;1.60;;
66425;SDS011;53237;46.158;14.604;2023-07-13T07:28:06;2.50;;;1.80;;
66425;SDS011;53237;46.158;14.604;2023-07-13T07:30:32;1.70;;;1.55;;
66425;SDS011;53237;46.158;14.604;2023-07-13T07:32:58;4.55;;;2.40;;
66425;SDS011;53237;46.158;14.604;2023-07-13T07:35:24;3.92;;;2.20;;
66425;SDS011;53237;46.158;14.604;2023-07-13T07:37:50;3.05;;;1.65;;
66425;SDS011;53237;46.158;14.604;2023-07-13T07:40:16;4.28;;;2.50;;
66425;SDS011;53237;46.158;14.604;2023-07-13T07:42:42;5.10;;;2.10;;
66425;SDS011;53237;46.158;14.604;2023-07-13T07:45:08;4.63;;;2.38;;
66425;SDS011;53237;46.158;14.604;2023-07-13T07:47:36;7.18;;;2.85;;
66425;SDS011;53237;46.158;14.604;2023-07-13T07:50:02;4.32;;;2.10;;
66425;SDS011;53237;46.158;14.604;2023-07-13T07:52:28;3.20;;;2.20;;
66425;SDS011;53237;46.158;14.604;2023-07-13T07:54:54;4.97;;;2.10;;
66425;SDS011;53237;46.158;14.604;2023-07-13T07:57:20;2.85;;;2.25;;
66425;SDS011;53237;46.158;14.604;2023-07-13T07:59:46;4.18;;;2.85;;
66425;SDS011;53237;46.158;14.604;2023-07-13T08:02:13;4.05;;;1.85;;
66425;SDS011;53237;46.158;14.604;2023-07-13T08:04:39;4.18;;;2.88;;
66425;SDS011;53237;46.158;14.604;2023-07-13T08:07:05;3.67;;;2.60;;
66425;SDS011;53237;46.158;14.604;2023-07-13T08:09:31;6.32;;;2.97;;
66425;SDS011;53237;46.158;14.604;2023-07-13T08:11:57;5.10;;;2.63;;
66425;SDS011;53237;46.158;14.604;2023-07-13T08:14:23;3.40;;;2.17;;
66425;SDS011;53237;46.158;14.604;2023-07-13T08:16:49;5.05;;;2.33;;
66425;SDS011;53237;46.158;14.604;2023-07-13T08:19:15;7.35;;;3.33;;
66425;SDS011;53237;46.158;14.604;2023-07-13T08:21:41;4.22;;;2.33;;
66425;SDS011;53237;46.158;14.604;2023-07-13T08:24:08;5.35;;;2.60;;
66425;SDS011;53237;46.158;14.604;2023-07-13T08:26:34;2.88;;;1.98;;
66425;SDS011;53237;46.158;14.604;2023-07-13T08:29:00;6.13;;;2.97;;
66425;SDS011;53237;46.158;14.604;2023-07-13T08:31:27;3.67;;;2.00;;
66425;SDS011;53237;46.158;14.604;2023-07-13T08:33:53;3.95;;;2.28;;
66425;SDS011;53237;46.158;14.604;2023-07-13T08:36:19;2.28;;;2.03;;
66425;SDS011;53237;46.158;14.604;2023-07-13T08:38:45;5.55;;;2.38;;
66425;SDS011;53237;46.158;14.604;2023-07-13T08:41:15;3.50;;;1.88;;
66425;SDS011;53237;46.158;14.604;2023-07-13T08:43:42;3.78;;;1.58;;
66425;SDS011;53237;46.158;14.604;2023-07-13T08:46:23;3.13;;;1.60;;
66425;SDS011;53237;46.158;14.604;2023-07-13T08:49:32;3.13;;;1.60;;
66425;SDS011;53237;46.158;14.604;2023-07-13T08:54:16;1.65;;;1.42;;
66425;SDS011;53237;46.158;14.604;2023-07-13T08:56:44;3.80;;;1.83;;
66425;SDS011;53237;46.158;14.604;2023-07-13T08:59:13;1.95;;;1.75;;
66425;SDS011;53237;46.158;14.604;2023-07-13T09:04:18;3.75;;;1.98;;
66425;SDS011;53237;46.158;14.604;2023-07-13T09:09:19;2.13;;;1.67;;
66425;SDS011;53237;46.158;14.604;2023-07-13T09:11:50;3.00;;;1.95;;
66425;SDS011;53237;46.158;14.604;2023-07-13T09:14:41;2.10;;;1.50;;
66425;SDS011;53237;46.158;14.604;2023-07-13T09:17:53;3.85;;;1.52;;
66425;SDS011;53237;46.158;14.604;2023-07-13T09:19:59;3.42;;;1.92;;
66425;SDS011;53237;46.158;14.604;2023-07-13T09:22:26;2.20;;;1.67;;
66425;SDS011;53237;46.158;14.604;2023-07-13T09:24:56;4.13;;;1.70;;
66425;SDS011;53237;46.158;14.604;2023-07-13T09:27:27;2.17;;;1.58;;
66425;SDS011;53237;46.158;14.604;2023-07-13T09:29:57;4.47;;;2.13;;
66425;SDS011;53237;46.158;14.604;2023-07-13T09:32:25;3.10;;;1.83;;
66425;SDS011;53237;46.158;14.604;2023-07-13T09:34:52;2.65;;;1.73;;
66425;SDS011;53237;46.158;14.604;2023-07-13T09:37:19;4.93;;;2.22;;
66425;SDS011;53237;46.158;14.604;2023-07-13T09:39:46;4.68;;;2.58;;
66425;SDS011;53237;46.158;14.604;2023-07-13T09:45:00;5.47;;;2.22;;
66425;SDS011;53237;46.158;14.604;2023-07-13T09:49:55;3.38;;;2.38;;
66425;SDS011;53237;46.158;14.604;2023-07-13T09:52:21;3.88;;;1.85;;
66425;SDS011;53237;46.158;14.604;2023-07-13T09:54:48;2.78;;;2.00;;
66425;SDS011;53237;46.158;14.604;2023-07-13T09:57:15;2.25;;;1.65;;
66425;SDS011;53237;46.158;14.604;2023-07-13T09:59:46;2.42;;;1.55;;
66425;SDS011;53237;46.158;14.604;2023-07-13T10:02:31;3.00;;;2.30;;
66425;SDS011;53237;46.158;14.604;2023-07-13T10:07:24;2.45;;;2.10;;
66425;SDS011;53237;46.158;14.604;2023-07-13T10:09:53;3.75;;;2.13;;
66425;SDS011;53237;46.158;14.604;2023-07-13T10:12:20;6.05;;;2.30;;
66425;SDS011;53237;46.158;14.604;2023-07-13T10:14:48;2.85;;;1.60;;
66425;SDS011;53237;46.158;14.604;2023-07-13T10:17:14;2.92;;;1.70;;
66425;SDS011;53237;46.158;14.604;2023-07-13T10:19:42;2.20;;;1.45;;
66425;SDS011;53237;46.158;14.604;2023-07-13T10:24:38;3.45;;;2.00;;
66425;SDS011;53237;46.158;14.604;2023-07-13T10:27:13;2.50;;;1.50;;
66425;SDS011;53237;46.158;14.604;2023-07-13T10:32:10;1.90;;;1.48;;
66425;SDS011;53237;46.158;14.604;2023-07-13T10:34:37;2.67;;;1.27;;
66425;SDS011;53237;46.158;14.604;2023-07-13T10:37:05;2.08;;;1.58;;
66425;SDS011;53237;46.158;14.604;2023-07-13T10:39:31;2.25;;;1.90;;
66425;SDS011;53237;46.158;14.604;2023-07-13T10:42:00;2.72;;;1.83;;
66425;SDS011;53237;46.158;14.604;2023-07-13T10:44:29;2.85;;;1.88;;
66425;SDS011;53237;46.158;14.604;2023-07-13T10:46:56;3.28;;;1.67;;
66425;SDS011;53237;46.158;14.604;2023-07-13T10:49:23;2.83;;;1.50;;
66425;SDS011;53237;46.158;14.604;2023-07-13T10:51:49;2.10;;;1.75;;
66425;SDS011;53237;46.158;14.604;2023-07-13T10:54:21;2.95;;;1.60;;
66425;SDS011;53237;46.158;14.604;2023-07-13T10:56:52;2.53;;;2.00;;
66425;SDS011;53237;46.158;14.604;2023-07-13T11:04:14;3.58;;;1.80;;
66425;SDS011;53237;46.158;14.604;2023-07-13T11:06:41;2.10;;;1.90;;
66425;SDS011;53237;46.158;14.604;2023-07-13T11:11:44;2.85;;;2.20;;
66425;SDS011;53237;46.158;14.604;2023-07-13T11:16:46;4.25;;;1.85;;
66425;SDS011;53237;46.158;14.604;2023-07-13T11:24:28;2.72;;;2.20;;
66425;SDS011;53237;46.158;14.604;2023-07-13T11:26:55;2.40;;;2.20;;
66425;SDS011;53237;46.158;14.604;2023-07-13T11:29:25;3.50;;;2.55;;
66425;SDS011;53237;46.158;14.604;2023-07-13T11:31:52;2.38;;;2.10;;
66425;SDS011;53237;46.158;14.604;2023-07-13T11:34:24;3.30;;;2.90;;
66425;SDS011;53237;46.158;14.604;2023-07-13T11:36:52;4.15;;;3.30;;
66425;SDS011;53237;46.158;14.604;2023-07-13T11:39:41;3.83;;;3.40;;
66425;SDS011;53237;46.158;14.604;2023-07-13T11:42:05;3.72;;;3.00;;
66425;SDS011;53237;46.158;14.604;2023-07-13T11:44:32;4.32;;;3.28;;
66425;SDS011;53237;46.158;14.604;2023-07-13T11:47:08;5.88;;;3.50;;
66425;SDS011;53237;46.158;14.604;2023-07-13T11:49:41;7.75;;;3.70;;
66425;SDS011;53237;46.158;14.604;2023-07-13T11:52:11;3.72;;;2.88;;
66425;SDS011;53237;46.158;14.604;2023-07-13T11:54:50;2.72;;;2.53;;
66425;SDS011;53237;46.158;14.604;2023-07-13T11:59:49;2.70;;;2.42;;
66425;SDS011;53237;46.158;14.604;2023-07-13T12:02:25;3.30;;;3.00;;
66425;SDS011;53237;46.158;14.604;2023-07-13T12:04:53;4.80;;;3.00;;
66425;SDS011;53237;46.158;14.604;2023-07-13T12:07:19;3.30;;;2.80;;
66425;SDS011;53237;46.158;14.604;2023-07-13T12:09:45;4.10;;;2.92;;
66425;SDS011;53237;46.158;14.604;2023-07-13T12:12:12;4.68;;;3.17;;
66425;SDS011;53237;46.158;14.604;2023-07-13T12:14:39;7.05;;;3.63;;
66425;SDS011;53237;46.158;14.604;2023-07-13T12:17:09;8.68;;;4.30;;
66425;SDS011;53237;46.158;14.604;2023-07-13T12:19:37;6.38;;;4.30;;
66425;SDS011;53237;46.158;14.604;2023-07-13T12:22:03;8.43;;;4.50;;
66425;SDS011;53237;46.158;14.604;2023-07-13T12:24:29;8.77;;;4.90;;
66425;SDS011;53237;46.158;14.604;2023-07-13T12:27:00;5.90;;;4.30;;
66425;SDS011;53237;46.158;14.604;2023-07-13T12:29:26;5.07;;;4.13;;
66425;SDS011;53237;46.158;14.604;2023-07-13T12:31:52;4.55;;;3.90;;
66425;SDS011;53237;46.158;14.604;2023-07-13T12:34:21;9.15;;;5.05;;
66425;SDS011;53237;46.158;14.604;2023-07-13T12:36:54;6.47;;;4.03;;
66425;SDS011;53237;46.158;14.604;2023-07-13T12:39:26;6.53;;;3.90;;
66425;SDS011;53237;46.158;14.604;2023-07-13T12:42:00;6.18;;;3.95;;
66425;SDS011;53237;46.158;14.604;2023-07-13T12:44:34;5.40;;;4.05;;
66425;SDS011;53237;46.158;14.604;2023-07-13T12:47:06;5.15;;;3.78;;
66425;SDS011;53237;46.158;14.604;2023-07-13T12:49:39;5.88;;;3.83;;
66425;SDS011;53237;46.158;14.604;2023-07-13T12:52:11;8.18;;;4.03;;
66425;SDS011;53237;46.158;14.604;2023-07-13T12:54:39;4.15;;;3.70;;
66425;SDS011;53237;46.158;14.604;2023-07-13T12:57:05;5.10;;;4.03;;
66425;SDS011;53237;46.158;14.604;2023-07-13T12:59:34;6.75;;;4.75;;
66425;SDS011;53237;46.158;14.604;2023-07-13T13:02:01;4.10;;;3.70;;
66425;SDS011;53237;46.158;14.604;2023-07-13T13:04:27;4.97;;;3.80;;
66425;SDS011;53237;46.158;14.604;2023-07-13T13:07:00;4.85;;;3.75;;
66425;SDS011;53237;46.158;14.604;2023-07-13T13:09:26;4.20;;;3.72;;
66425;SDS011;53237;46.158;14.604;2023-07-13T13:11:52;5.45;;;4.05;;
66425;SDS011;53237;46.158;14.604;2023-07-13T13:14:18;5.25;;;4.03;;
66425;SDS011;53237;46.158;14.604;2023-07-13T13:16:46;3.97;;;3.58;;
66425;SDS011;53237;46.158;14.604;2023-07-13T13:19:15;3.92;;;3.63;;
66425;SDS011;53237;46.158;14.604;2023-07-13T13:21:42;4.95;;;3.65;;
66425;SDS011;53237;46.158;14.604;2023-07-13T13:24:12;3.72;;;3.15;;
66425;SDS011;53237;46.158;14.604;2023-07-13T13:26:38;5.85;;;3.28;;
66425;SDS011;53237;46.158;14.604;2023-07-13T13:29:12;4.10;;;3.60;;
66425;SDS011;53237;46.158;14.604;2023-07-13T13:31:39;4.90;;;3.33;;
66425;SDS011;53237;46.158;14.604;2023-07-13T13:34:07;4.32;;;3.28;;
66425;SDS011;53237;46.158;14.604;2023-07-13T13:36:34;3.92;;;3.40;;
66425;SDS011;53237;46.158;14.604;2023-07-13T13:39:00;5.25;;;3.55;;
66425;SDS011;53237;46.158;14.604;2023-07-13T13:41:27;4.07;;;3.17;;
66425;SDS011;53237;46.158;14.604;2023-07-13T13:43:53;4.35;;;3.10;;
66425;SDS011;53237;46.158;14.604;2023-07-13T13:46:20;4.03;;;3.55;;
66425;SDS011;53237;46.158;14.604;2023-07-13T13:48:49;3.20;;;2.92;;
66425;SDS011;53237;46.158;14.604;2023-07-13T13:51:16;4.00;;;3.40;;
66425;SDS011;53237;46.158;14.604;2023-07-13T13:53:43;3.03;;;2.83;;
66425;SDS011;53237;46.158;14.604;2023-07-13T13:56:10;3.67;;;3.33;;
66425;SDS011;53237;46.158;14.604;2023-07-13T13:58:36;3.70;;;3.15;;
66425;SDS011;53237;46.158;14.604;2023-07-13T14:01:02;3.38;;;3.08;;
66425;SDS011;53237;46.158;14.604;2023-07-13T14:03:31;3.42;;;3.13;;
66425;SDS011;53237;46.158;14.604;2023-07-13T14:05:57;3.45;;;3.15;;
66425;SDS011;53237;46.158;14.604;2023-07-13T14:08:23;3.50;;;3.10;;
66425;SDS011;53237;46.158;14.604;2023-07-13T14:10:50;3.30;;;2.83;;
66425;SDS011;53237;46.158;14.604;2023-07-13T14:13:21;3.60;;;3.30;;
66425;SDS011;53237;46.158;14.604;2023-07-13T14:15:48;4.10;;;3.00;;
66425;SDS011;53237;46.158;14.604;2023-07-13T14:18:14;3.85;;;3.15;;
66425;SDS011;53237;46.158;14.604;2023-07-13T14:20:47;4.20;;;3.35;;
66425;SDS011;53237;46.158;14.604;2023-07-13T14:23:16;4.72;;;3.33;;
66425;SDS011;53237;46.158;14.604;2023-07-13T14:25:43;3.58;;;2.60;;
66425;SDS011;53237;46.158;14.604;2023-07-13T14:28:25;3.60;;;2.80;;
66425;SDS011;53237;46.158;14.604;2023-07-13T14:30:52;7.07;;;3.08;;
66425;SDS011;53237;46.158;14.604;2023-07-13T14:33:19;3.20;;;2.50;;
66425;SDS011;53237;46.158;14.604;2023-07-13T14:35:45;2.50;;;2.30;;
66425;SDS011;53237;46.158;14.604;2023-07-13T14:38:13;2.60;;;2.35;;
66425;SDS011;53237;46.158;14.604;2023-07-13T14:40:41;2.58;;;2.38;;
66425;SDS011;53237;46.158;14.604;2023-07-13T14:43:13;2.90;;;2.60;;
66425;SDS011;53237;46.158;14.604;2023-07-13T14:45:41;3.13;;;2.40;;
66425;SDS011;53237;46.158;14.604;2023-07-13T14:50:42;2.90;;;2.65;;
66425;SDS011;53237;46.158;14.604;2023-07-13T14:53:11;3.20;;;2.13;;
66425;SDS011;53237;46.158;14.604;2023-07-13T14:55:37;3.28;;;2.22;;
66425;SDS011;53237;46.158;14.604;2023-07-13T14:58:03;3.95;;;2.20;;
66425;SDS011;53237;46.158;14.604;2023-07-13T15:00:29;2.60;;;2.33;;
66425;SDS011;53237;46.158;14.604;2023-07-13T15:02:56;2.67;;;2.33;;
66425;SDS011;53237;46.158;14.604;2023-07-13T15:05:24;2.30;;;2.10;;
66425;SDS011;53237;46.158;14.604;2023-07-13T15:07:51;2.00;;;1.80;;
66425;SDS011;53237;46.158;14.604;2023-07-13T15:12:43;2.15;;;1.92;;
66425;SDS011;53237;46.158;14.604;2023-07-13T15:15:10;2.88;;;2.15;;
66425;SDS011;53237;46.158;14.604;2023-07-13T15:17:40;2.05;;;1.85;;
66425;SDS011;53237;46.158;14.604;2023-07-13T15:22:51;3.15;;;2.50;;